createdAt,value
2022-12-27T00:01:12.355Z,26.03
2022-12-27T00:03:41.355Z,28.07
2022-12-27T00:06:16.019Z,25.10
2022-12-27T00:08:46.603Z,25.80
2022-12-27T00:11:17.395Z,27.07
2022-12-27T00:13:45.657Z,26.83
2022-12-27T00:16:16.137Z,28.00
2022-12-27T00:18:44.462Z,28.43
2022-12-27T00:21:14.286Z,27.77
2022-12-27T00:23:45.602Z,26.20
2022-12-27T00:26:17.314Z,26.93
2022-12-27T00:28:46.754Z,26.27
2022-12-27T00:31:15.793Z,25.87
2022-12-27T00:33:45.619Z,27.63
2022-12-27T00:36:16.299Z,27.63
2022-12-27T00:38:44.836Z,26.57
2022-12-27T00:41:14.853Z,25.77
2022-12-27T00:43:43.261Z,26.37
2022-12-27T00:46:11.494Z,27.33
2022-12-27T00:48:40.031Z,27.10
2022-12-27T00:51:09.786Z,27.30
2022-12-27T00:53:38.238Z,25.90
2022-12-27T00:56:08.810Z,24.83
2022-12-27T00:58:41.013Z,22.73
2022-12-27T01:01:10.798Z,23.60
2022-12-27T01:03:39.057Z,22.03
2022-12-27T01:06:08.018Z,23.00
2022-12-27T01:08:36.402Z,24.47
2022-12-27T01:11:05.083Z,23.73
2022-12-27T01:13:33.098Z,22.90
2022-12-27T01:16:03.000Z,22.53
2022-12-27T01:18:31.141Z,22.50
2022-12-27T01:20:59.310Z,21.20
2022-12-27T01:23:27.853Z,23.13
2022-12-27T01:26:01.643Z,23.13
2022-12-27T01:28:30.134Z,24.40
2022-12-27T01:30:58.274Z,21.87
2022-12-27T01:33:27.772Z,22.70
2022-12-27T01:35:55.877Z,22.27
2022-12-27T01:38:23.915Z,22.50
2022-12-27T01:40:51.947Z,23.30
2022-12-27T01:43:19.474Z,23.60
2022-12-27T01:45:49.104Z,24.23
2022-12-27T01:48:22.716Z,25.50
2022-12-27T01:50:55.588Z,24.43
2022-12-27T01:53:25.840Z,26.40
2022-12-27T01:55:57.367Z,25.47
2022-12-27T01:58:30.273Z,24.30
2022-12-27T02:00:59.714Z,24.33
2022-12-27T02:03:31.479Z,25.80
2022-12-27T02:06:03.575Z,23.90
2022-12-27T02:08:40.718Z,24.87
2022-12-27T02:11:10.172Z,23.10
2022-12-27T02:13:42.208Z,26.17
2022-12-27T02:16:15.591Z,24.00
2022-12-27T02:18:44.174Z,22.30
2022-12-27T02:21:51.611Z,24.00
2022-12-27T02:24:41.470Z,24.13
2022-12-27T02:27:27.347Z,23.80
2022-12-27T02:30:03.091Z,24.70
2022-12-27T02:32:35.985Z,23.10
2022-12-27T02:35:10.713Z,24.10
2022-12-27T02:37:42.703Z,23.47
2022-12-27T02:40:30.780Z,23.37
2022-12-27T02:43:16.879Z,22.00
2022-12-27T02:46:11.288Z,21.80
2022-12-27T02:48:56.790Z,21.10
2022-12-27T02:51:56.065Z,20.50
2022-12-27T02:54:50.510Z,23.30
2022-12-27T02:57:30.778Z,22.97
2022-12-27T03:00:25.389Z,21.60
2022-12-27T03:03:29.390Z,22.77
2022-12-27T03:06:37.416Z,21.97
2022-12-27T03:09:35.545Z,22.07
2022-12-27T03:12:28.365Z,20.67
2022-12-27T03:15:18.519Z,20.83
2022-12-27T03:17:53.245Z,20.50
2022-12-27T03:20:41.412Z,21.73
2022-12-27T03:23:28.765Z,21.47
2022-12-27T03:25:59.357Z,21.27
2022-12-27T03:28:48.450Z,21.43
2022-12-27T03:31:37.866Z,21.57
2022-12-27T03:34:24.187Z,21.90
2022-12-27T03:37:12.429Z,22.57
2022-12-27T03:39:48.503Z,23.07
2022-12-27T03:42:42.592Z,23.40
2022-12-27T03:45:11.576Z,21.33
2022-12-27T03:47:46.546Z,23.27
2022-12-27T03:50:22.141Z,23.83
2022-12-27T03:52:58.235Z,23.40
2022-12-27T03:55:33.028Z,21.00
2022-12-27T03:58:01.406Z,21.37
2022-12-27T04:00:30.939Z,21.90
2022-12-27T04:02:59.235Z,21.40
2022-12-27T04:05:27.497Z,22.13
2022-12-27T04:08:14.626Z,23.60
2022-12-27T04:11:00.009Z,23.50
2022-12-27T04:13:45.612Z,21.83
2022-12-27T04:16:31.336Z,21.90
2022-12-27T04:19:16.774Z,21.27
2022-12-27T04:22:02.477Z,21.67
2022-12-27T04:24:49.479Z,23.57
2022-12-27T04:27:35.142Z,22.27
2022-12-27T04:30:20.728Z,22.00
2022-12-27T04:33:06.200Z,21.93
2022-12-27T04:35:34.403Z,21.70
2022-12-27T04:38:02.425Z,22.23
2022-12-27T04:40:49.308Z,21.13
2022-12-27T04:43:34.680Z,22.90
2022-12-27T04:46:20.252Z,21.90
2022-12-27T04:49:05.920Z,22.73
2022-12-27T04:51:51.203Z,22.20
2022-12-27T04:54:38.358Z,22.40
2022-12-27T04:57:08.093Z,23.60
2022-12-27T04:59:53.776Z,24.03
2022-12-27T05:02:22.332Z,22.17
2022-12-27T05:04:50.720Z,22.43
2022-12-27T05:07:36.313Z,17.90
2022-12-27T05:10:24.832Z,17.00
2022-12-27T05:13:11.891Z,18.73
2022-12-27T05:15:40.256Z,16.93
2022-12-27T05:18:08.441Z,16.33
2022-12-27T05:20:36.585Z,17.80
2022-12-27T05:23:22.205Z,18.33
2022-12-27T05:25:50.318Z,18.73
2022-12-27T05:28:19.836Z,19.43
2022-12-27T05:30:47.942Z,17.53
2022-12-27T05:33:16.078Z,20.23
2022-12-27T05:35:44.233Z,20.23
2022-12-27T05:38:12.502Z,18.57
2022-12-27T05:40:40.666Z,17.00
2022-12-27T05:43:08.800Z,18.23
2022-12-27T05:45:38.302Z,19.47
2022-12-27T05:48:07.170Z,19.23
2022-12-27T05:50:35.263Z,20.77
2022-12-27T05:53:03.470Z,20.90
2022-12-27T05:55:31.476Z,20.63
2022-12-27T05:57:59.551Z,22.00
2022-12-27T06:00:27.649Z,21.87
2022-12-27T06:02:57.363Z,21.53
2022-12-27T06:05:25.519Z,21.03
2022-12-27T06:07:53.535Z,19.83
2022-12-27T06:10:21.788Z,20.60
2022-12-27T06:12:50.034Z,20.23
2022-12-27T06:15:18.534Z,21.17
2022-12-27T06:17:46.765Z,20.57
2022-12-27T06:20:16.504Z,18.67
2022-12-27T06:22:44.885Z,19.43
2022-12-27T06:25:14.475Z,20.03
2022-12-27T06:27:42.818Z,19.03
2022-12-27T06:30:12.392Z,19.23
2022-12-27T06:32:40.921Z,19.23
2022-12-27T06:35:11.394Z,19.60
2022-12-27T06:37:40.998Z,19.30
2022-12-27T06:40:10.176Z,22.27
2022-12-27T06:42:38.318Z,20.53
2022-12-27T06:45:09.488Z,19.67
2022-12-27T06:47:37.677Z,19.40
2022-12-27T06:50:06.637Z,44.47
2022-12-27T06:52:34.897Z,28.57
2022-12-27T06:55:04.797Z,24.00
2022-12-27T06:57:32.936Z,20.87
2022-12-27T07:00:01.801Z,20.27
2022-12-27T07:02:30.099Z,20.13
2022-12-27T07:04:58.320Z,20.40
2022-12-27T07:07:26.396Z,20.47
2022-12-27T07:09:54.463Z,19.43
2022-12-27T07:12:24.067Z,18.77
2022-12-27T07:14:52.278Z,27.00
2022-12-27T07:17:20.342Z,18.90
2022-12-27T07:19:48.718Z,19.37
2022-12-27T07:22:17.005Z,20.40
2022-12-27T07:24:45.093Z,20.53
2022-12-27T07:27:15.668Z,21.50
2022-12-27T07:29:45.897Z,21.10
2022-12-27T07:32:14.181Z,23.80
2022-12-27T07:34:42.325Z,25.93
2022-12-27T07:37:10.552Z,23.87
2022-12-27T07:39:38.603Z,26.13
2022-12-27T07:42:08.909Z,24.77
2022-12-27T07:44:37.176Z,24.33
2022-12-27T07:47:06.908Z,23.87
2022-12-27T07:49:35.109Z,25.63
2022-12-27T07:52:03.443Z,26.53
2022-12-27T07:54:31.630Z,26.27
2022-12-27T08:23:17.037Z,27.70
2022-12-27T08:25:49.077Z,26.37
2022-12-27T08:28:19.533Z,26.23
2022-12-27T08:30:48.983Z,25.23
2022-12-27T08:33:17.900Z,27.70
2022-12-27T08:35:53.737Z,25.93
2022-12-27T08:38:23.875Z,27.13
2022-12-27T08:40:52.142Z,27.60
2022-12-27T08:43:21.140Z,27.30
2022-12-27T08:45:49.369Z,27.57
2022-12-27T08:48:19.546Z,26.63
2022-12-27T08:50:47.824Z,27.40
2022-12-27T08:53:16.006Z,25.40
2022-12-27T08:55:45.492Z,25.23
2022-12-27T08:58:16.461Z,26.63
2022-12-27T09:00:44.990Z,26.30
2022-12-27T09:03:16.304Z,24.13
2022-12-27T09:05:44.811Z,24.47
2022-12-27T09:08:13.345Z,20.47
2022-12-27T09:10:41.548Z,18.13
2022-12-27T09:13:11.236Z,19.20
2022-12-27T09:15:39.565Z,22.47
2022-12-27T09:18:08.039Z,19.50
2022-12-27T09:20:36.436Z,19.67
2022-12-27T09:23:04.572Z,20.37
2022-12-27T09:25:32.674Z,22.23
2022-12-27T09:28:00.862Z,17.83
2022-12-27T09:30:30.489Z,16.87
2022-12-27T09:32:59.809Z,15.63
2022-12-27T09:35:28.089Z,16.10
2022-12-27T09:37:56.264Z,14.53
2022-12-27T09:40:24.639Z,15.77
2022-12-27T09:43:12.524Z,14.20
2022-12-27T09:45:52.923Z,14.67
2022-12-27T09:48:32.952Z,14.63
2022-12-27T09:51:06.692Z,13.73
2022-12-27T09:53:43.814Z,13.37
2022-12-27T09:56:14.407Z,13.87
2022-12-27T09:58:49.089Z,14.13
2022-12-27T10:01:32.944Z,15.30
2022-12-27T10:04:01.775Z,14.03
2022-12-27T10:06:54.684Z,14.47
2022-12-27T10:09:37.026Z,16.00
2022-12-27T10:12:17.693Z,14.80
2022-12-27T10:15:04.636Z,20.10
2022-12-27T10:17:52.842Z,15.67
2022-12-27T10:20:32.185Z,16.57
2022-12-27T10:23:06.460Z,18.67
2022-12-27T10:25:37.118Z,15.97
2022-12-27T10:28:23.143Z,15.70
2022-12-27T10:30:52.253Z,16.60
2022-12-27T10:33:27.065Z,16.30
2022-12-27T10:35:55.595Z,15.90
2022-12-27T10:38:24.679Z,15.57
2022-12-27T10:40:59.053Z,14.80
2022-12-27T10:43:33.549Z,16.70
2022-12-27T10:46:13.851Z,17.87
2022-12-27T10:49:20.272Z,15.13
2022-12-27T10:51:45.537Z,15.67
2022-12-27T10:54:15.736Z,16.10
2022-12-27T10:56:45.048Z,17.43
2022-12-27T10:59:17.104Z,16.50
2022-12-27T11:01:46.789Z,17.70
2022-12-27T11:04:20.968Z,17.43
2022-12-27T11:06:52.435Z,16.30
2022-12-27T11:09:32.406Z,16.30
2022-12-27T11:12:23.937Z,18.10
2022-12-27T11:14:57.137Z,16.67
2022-12-27T11:17:29.686Z,17.83
2022-12-27T11:20:04.336Z,17.97
2022-12-27T11:22:33.357Z,16.50
2022-12-27T11:25:02.241Z,14.77
2022-12-27T11:27:32.053Z,14.00
2022-12-27T11:30:01.144Z,16.47
2022-12-27T11:32:29.341Z,12.90
2022-12-27T11:34:59.234Z,14.70
2022-12-27T11:37:28.486Z,18.40
2022-12-27T11:40:12.040Z,18.33
2022-12-27T11:42:45.671Z,18.00
2022-12-27T11:45:22.209Z,17.50
2022-12-27T11:47:55.766Z,16.63
2022-12-27T11:50:41.029Z,15.23
2022-12-27T11:53:30.311Z,15.00
2022-12-27T11:56:14.491Z,14.60
2022-12-27T11:59:16.591Z,13.77
2022-12-27T12:02:18.602Z,13.43
2022-12-27T12:05:43.343Z,13.47
2022-12-27T12:08:36.240Z,13.27
2022-12-27T12:11:17.089Z,12.80
2022-12-27T12:14:11.470Z,12.73
2022-12-27T12:17:04.216Z,12.32
2022-12-27T12:20:05.557Z,11.65
2022-12-27T12:22:51.750Z,12.50
2022-12-27T12:25:48.910Z,12.10
2022-12-27T12:28:58.584Z,13.45
2022-12-27T12:31:40.571Z,12.95
2022-12-27T12:34:24.701Z,12.57
2022-12-27T12:37:06.918Z,12.17
2022-12-27T12:39:56.267Z,11.13
2022-12-27T12:42:32.538Z,8.38
2022-12-27T12:45:22.167Z,3.70
2022-12-27T12:48:43.829Z,12.00
2022-12-27T12:51:27.643Z,14.57
2022-12-27T12:54:09.270Z,15.18
2022-12-27T12:57:03.243Z,10.07
2022-12-27T12:59:50.456Z,11.13
2022-12-27T13:02:39.136Z,9.65
2022-12-27T13:05:17.094Z,9.63
2022-12-27T13:07:57.378Z,9.13
2022-12-27T13:10:46.580Z,9.60
2022-12-27T13:13:24.106Z,10.00
2022-12-27T13:16:08.126Z,9.80
2022-12-27T13:18:47.782Z,10.05
2022-12-27T13:21:31.470Z,10.88
2022-12-27T13:24:08.602Z,12.20
2022-12-27T13:26:46.953Z,10.07
2022-12-27T13:29:37.140Z,9.80
2022-12-27T13:32:14.825Z,9.98
2022-12-27T13:34:55.252Z,9.65
2022-12-27T13:37:39.213Z,10.45
2022-12-27T13:40:25.178Z,10.25
2022-12-27T13:43:17.824Z,9.38
2022-12-27T13:46:02.153Z,8.73
2022-12-27T13:48:52.563Z,10.60
2022-12-27T13:51:39.639Z,10.05
2022-12-27T13:54:30.791Z,9.80
2022-12-27T13:57:13.235Z,11.30
2022-12-27T14:00:11.978Z,7.53
2022-12-27T14:03:26.469Z,5.25
2022-12-27T14:06:39.104Z,2.70
2022-12-27T14:09:31.047Z,2.60
2022-12-27T14:12:15.731Z,2.28
2022-12-27T14:14:46.392Z,2.40
2022-12-27T14:17:30.093Z,2.50
2022-12-27T14:20:18.747Z,2.47
2022-12-27T14:23:06.817Z,2.60
2022-12-27T14:26:06.155Z,2.85
2022-12-27T14:29:02.682Z,2.63
2022-12-27T14:32:07.817Z,2.97
2022-12-27T14:35:07.592Z,2.70
2022-12-27T14:38:18.462Z,2.92
2022-12-27T14:41:10.305Z,6.15
2022-12-27T14:44:11.696Z,5.38
2022-12-27T14:47:08.050Z,4.65
2022-12-27T14:50:08.878Z,5.45
2022-12-27T14:53:22.932Z,6.20
2022-12-27T14:56:03.707Z,7.55
2022-12-27T14:58:46.859Z,6.93
2022-12-27T15:01:28.664Z,9.75
2022-12-27T15:04:29.472Z,5.97
2022-12-27T15:07:21.335Z,6.68
2022-12-27T15:09:59.076Z,5.43
2022-12-27T15:12:37.612Z,6.93
2022-12-27T15:15:32.285Z,4.97
2022-12-27T15:18:23.972Z,4.53
2022-12-27T15:21:22.879Z,4.87
2022-12-27T15:23:56.028Z,12.77
2022-12-27T15:26:35.920Z,4.60
2022-12-27T15:29:21.044Z,8.37
2022-12-27T15:32:00.514Z,10.30
2022-12-27T15:34:50.372Z,5.85
2022-12-27T15:37:53.585Z,9.00
2022-12-27T15:40:37.371Z,11.00
2022-12-27T15:43:16.180Z,7.70
2022-12-27T15:46:01.662Z,9.57
2022-12-27T15:49:03.272Z,8.63
2022-12-27T15:51:38.074Z,8.40
2022-12-27T15:54:28.392Z,14.07
2022-12-27T15:57:24.661Z,16.88
2022-12-27T15:59:55.235Z,7.97
2022-12-27T16:02:33.436Z,11.00
2022-12-27T16:05:13.061Z,8.67
2022-12-27T16:07:44.879Z,7.77
2022-12-27T16:10:35.835Z,6.60
2022-12-27T16:13:23.004Z,7.47
2022-12-27T16:15:55.220Z,7.90
2022-12-27T16:19:10.779Z,7.65
2022-12-27T16:21:44.713Z,7.60
2022-12-27T16:24:19.446Z,7.67
2022-12-27T16:26:57.500Z,7.13
2022-12-27T16:29:30.213Z,5.83
2022-12-27T16:32:17.036Z,5.40
2022-12-27T16:34:47.247Z,5.83
2022-12-27T16:37:24.627Z,5.57
2022-12-27T16:40:07.485Z,5.40
2022-12-27T16:43:14.175Z,5.47
2022-12-27T16:45:50.847Z,6.80
2022-12-27T16:48:28.074Z,8.10
2022-12-27T16:51:09.887Z,5.87
2022-12-27T16:54:07.453Z,6.03
2022-12-27T16:56:37.500Z,6.67
2022-12-27T16:59:48.724Z,6.90
2022-12-27T17:02:33.752Z,6.37
2022-12-27T17:05:02.431Z,6.67
2022-12-27T17:07:51.451Z,7.00
2022-12-27T17:11:01.203Z,7.50
2022-12-27T17:13:46.396Z,8.77
2022-12-27T17:16:21.972Z,7.50
2022-12-27T17:18:57.974Z,6.97
2022-12-27T17:21:30.750Z,7.20
2022-12-27T17:24:01.977Z,8.13
2022-12-27T17:26:53.543Z,7.00
2022-12-27T17:29:51.226Z,7.27
2022-12-27T17:32:31.314Z,7.47
2022-12-27T17:35:07.491Z,6.80
2022-12-27T17:37:45.221Z,6.50
2022-12-27T17:40:27.688Z,6.30
2022-12-27T17:43:25.865Z,7.17
2022-12-27T17:46:00.004Z,6.43
2022-12-27T17:48:30.716Z,6.47
2022-12-27T17:51:03.536Z,6.33
2022-12-27T17:53:49.713Z,6.80
2022-12-27T17:56:37.834Z,6.00
2022-12-27T17:59:10.128Z,6.57
2022-12-27T18:01:45.396Z,5.97
2022-12-27T18:04:22.173Z,5.63
2022-12-27T18:06:55.812Z,5.73
2022-12-27T18:09:44.707Z,5.90
2022-12-27T18:12:18.895Z,6.00
2022-12-27T18:14:55.581Z,6.17
2022-12-27T18:17:29.360Z,6.40
2022-12-27T18:19:58.040Z,6.13
2022-12-27T18:22:28.875Z,5.63
2022-12-27T18:24:57.205Z,5.30
2022-12-27T18:27:26.992Z,5.47
2022-12-27T18:30:32.728Z,6.93
2022-12-27T18:33:11.850Z,6.47
2022-12-27T18:35:40.428Z,8.23
2022-12-27T18:38:10.371Z,7.73
2022-12-27T18:40:38.615Z,6.93
2022-12-27T18:43:16.737Z,6.73
2022-12-27T18:45:44.991Z,6.47
2022-12-27T18:48:13.916Z,6.70
2022-12-27T18:51:10.668Z,6.83
2022-12-27T18:53:55.688Z,6.90
2022-12-27T18:56:51.132Z,6.80
2022-12-27T18:59:25.879Z,6.63
2022-12-27T19:01:55.318Z,6.73
2022-12-27T19:04:26.913Z,6.80
2022-12-27T19:06:59.134Z,6.40
2022-12-27T19:09:32.508Z,6.67
2022-12-27T19:12:04.659Z,7.27
2022-12-27T19:14:38.972Z,6.67
2022-12-27T19:17:11.279Z,7.20
2022-12-27T19:19:40.004Z,6.77
2022-12-27T19:22:30.501Z,5.90
2022-12-27T19:25:02.091Z,6.57
2022-12-27T19:27:30.178Z,6.97
2022-12-27T19:29:58.222Z,8.00
2022-12-27T19:32:33.467Z,6.83
2022-12-27T19:35:04.301Z,7.63
2022-12-27T19:37:35.929Z,8.50
2022-12-27T19:40:07.256Z,7.20
2022-12-27T19:42:36.857Z,6.67
2022-12-27T19:45:05.188Z,6.90
2022-12-27T19:47:34.984Z,7.27
2022-12-27T19:50:03.241Z,7.90
2022-12-27T19:52:31.476Z,9.00
2022-12-27T19:55:03.675Z,8.13
2022-12-27T19:57:33.253Z,9.40
2022-12-27T20:00:05.520Z,6.53
2022-12-27T20:02:37.570Z,5.90
2022-12-27T20:05:09.908Z,5.40
2022-12-27T20:07:39.377Z,6.00
2022-12-27T20:10:08.338Z,6.30
2022-12-27T20:12:37.911Z,5.60
2022-12-27T20:15:07.192Z,5.27
2022-12-27T20:17:41.102Z,5.30
2022-12-27T20:20:13.555Z,6.17
2022-12-27T20:22:41.807Z,6.10
2022-12-27T20:25:11.043Z,5.87
2022-12-27T20:27:40.664Z,5.67
2022-12-27T20:30:10.493Z,5.70
2022-12-27T20:32:38.917Z,6.23
2022-12-27T20:35:08.219Z,5.83
2022-12-27T20:37:36.368Z,6.50
2022-12-27T20:40:05.298Z,5.93
2022-12-27T20:42:33.388Z,5.50
2022-12-27T20:45:03.054Z,5.40
2022-12-27T20:47:31.269Z,5.40
2022-12-27T20:49:59.536Z,5.23
2022-12-27T20:52:31.128Z,5.03
2022-12-27T20:55:00.201Z,4.33
2022-12-27T20:57:28.278Z,4.50
2022-12-27T20:59:56.753Z,5.03
2022-12-27T21:02:26.728Z,5.20
2022-12-27T21:04:55.253Z,4.50
2022-12-27T21:07:23.495Z,4.53
2022-12-27T21:09:51.758Z,4.73
2022-12-27T21:12:20.680Z,5.03
2022-12-27T21:14:50.071Z,5.43
2022-12-27T21:17:19.145Z,4.80
2022-12-27T21:19:50.764Z,5.50
2022-12-27T21:22:18.967Z,5.50
2022-12-27T21:24:47.243Z,5.50
2022-12-27T21:27:15.443Z,5.40
2022-12-27T21:29:43.832Z,5.30
2022-12-27T21:32:12.153Z,5.43
2022-12-27T21:34:41.373Z,5.40
2022-12-27T21:37:13.482Z,5.13
2022-12-27T21:39:41.791Z,4.50
2022-12-27T21:42:11.022Z,4.73
2022-12-27T21:44:39.346Z,5.17
2022-12-27T21:47:07.915Z,5.30
2022-12-27T21:49:40.407Z,4.80
2022-12-27T21:52:08.687Z,4.60
2022-12-27T21:54:38.240Z,4.57
2022-12-27T21:57:06.487Z,4.37
2022-12-27T21:59:34.874Z,4.10
2022-12-27T22:02:03.203Z,3.83
2022-12-27T22:04:31.483Z,4.17
2022-12-27T22:06:59.695Z,4.10
2022-12-27T22:09:27.833Z,4.13
2022-12-27T22:11:57.394Z,4.23
2022-12-27T22:14:26.394Z,3.93
2022-12-27T22:16:55.842Z,4.10
2022-12-27T22:19:23.900Z,3.70
2022-12-27T22:21:52.027Z,3.67
2022-12-27T22:24:20.482Z,3.57
2022-12-27T22:26:50.296Z,4.13
2022-12-27T22:29:21.794Z,3.93
2022-12-27T22:31:49.945Z,4.10
2022-12-27T22:34:18.360Z,3.60
2022-12-27T22:36:46.506Z,3.70
2022-12-27T22:39:14.537Z,3.77
2022-12-27T22:41:42.716Z,4.20
2022-12-27T22:44:13.585Z,3.77
2022-12-27T22:47:24.637Z,3.30
2022-12-27T22:49:32.046Z,3.50
2022-12-27T22:52:00.144Z,3.80
2022-12-27T22:55:05.211Z,3.93
2022-12-27T22:57:16.541Z,4.10
2022-12-27T22:59:44.648Z,4.40
2022-12-27T23:02:14.262Z,4.40
2022-12-27T23:04:42.683Z,3.67
2022-12-27T23:07:10.781Z,3.77
2022-12-27T23:09:43.152Z,4.20
2022-12-27T23:12:12.026Z,3.97
2022-12-27T23:14:40.388Z,4.00
2022-12-27T23:17:08.508Z,5.40
2022-12-27T23:19:37.966Z,3.70
2022-12-27T23:22:06.752Z,3.90
2022-12-27T23:24:35.202Z,3.87
2022-12-27T23:27:03.413Z,3.90
2022-12-27T23:29:31.540Z,4.37
2022-12-27T23:31:59.620Z,4.13
2022-12-27T23:34:29.180Z,4.10
2022-12-27T23:36:59.097Z,4.60
2022-12-27T23:39:27.504Z,3.73
2022-12-27T23:41:55.701Z,3.63
2022-12-27T23:44:34.098Z,3.70
2022-12-27T23:47:04.500Z,4.07
2022-12-27T23:49:32.770Z,3.40
2022-12-27T23:52:02.329Z,3.73
2022-12-27T23:54:30.516Z,3.70
2022-12-27T23:57:22.156Z,3.57
2022-12-27T23:59:47.205Z,3.90
